createdAt,value
2023-04-22T00:01:12.930Z,100789.09
2023-04-22T00:03:42.274Z,100791.84
2023-04-22T00:06:09.647Z,100795.16
2023-04-22T00:08:36.961Z,100793.78
2023-04-22T00:11:04.217Z,100792.84
2023-04-22T00:13:31.354Z,100799.41
2023-04-22T00:15:58.434Z,100792.69
2023-04-22T00:18:26.090Z,100791.69
2023-04-22T00:20:53.224Z,100787.38
2023-04-22T00:23:20.744Z,100784.06
2023-04-22T00:25:47.877Z,100791.69
2023-04-22T00:28:14.970Z,100786.22
2023-04-22T00:30:42.171Z,100785.53
2023-04-22T00:33:09.492Z,100785.75
2023-04-22T00:35:36.935Z,100788.25
2023-04-22T00:38:04.056Z,100789.28
2023-04-22T00:40:31.293Z,100786.00
2023-04-22T00:42:59.705Z,100787.81
2023-04-22T00:45:27.219Z,100789.84
2023-04-22T00:47:54.959Z,100791.63
2023-04-22T00:50:22.120Z,100790.03
2023-04-22T00:52:49.484Z,100791.19
2023-04-22T00:55:16.615Z,100794.63
2023-04-22T00:57:44.329Z,100792.13
2023-04-22T01:00:11.687Z,100790.28
2023-04-22T01:02:39.118Z,100791.69
2023-04-22T01:05:09.420Z,100788.38
2023-04-22T01:07:36.803Z,100789.75
2023-04-22T01:10:04.732Z,100794.75
2023-04-22T01:12:31.806Z,100795.34
2023-04-22T01:14:58.952Z,100799.44
2023-04-22T01:17:26.077Z,100804.66
2023-04-22T01:19:53.322Z,100800.47
2023-04-22T01:22:20.864Z,100807.47
2023-04-22T01:24:47.963Z,100801.94
2023-04-22T01:27:15.080Z,100804.75
2023-04-22T01:29:42.549Z,100814.09
2023-04-22T01:32:10.490Z,100808.44
2023-04-22T01:34:37.609Z,100800.50
2023-04-22T01:37:05.909Z,100796.75
2023-04-22T01:39:33.193Z,100795.31
2023-04-22T01:42:02.107Z,100796.44
2023-04-22T01:44:29.288Z,100799.97
2023-04-22T01:46:57.157Z,100799.56
2023-04-22T01:49:24.242Z,100795.19
2023-04-22T01:51:51.409Z,100796.06
2023-04-22T01:54:21.000Z,100796.88
2023-04-22T01:56:54.514Z,100794.59
2023-04-22T01:59:22.080Z,100796.75
2023-04-22T02:01:50.286Z,100794.59
2023-04-22T02:04:18.672Z,100792.47
2023-04-22T02:06:45.735Z,100789.84
2023-04-22T02:09:12.847Z,100791.25
2023-04-22T02:11:39.884Z,100790.78
2023-04-22T02:14:07.008Z,100792.31
2023-04-22T02:16:34.187Z,100792.69
2023-04-22T02:19:01.355Z,100796.91
2023-04-22T02:21:29.419Z,100797.91
2023-04-22T02:23:56.560Z,100793.94
2023-04-22T02:26:24.984Z,100795.31
2023-04-22T02:28:52.676Z,100795.69
2023-04-22T02:31:19.871Z,100789.06
2023-04-22T02:33:46.973Z,100786.53
2023-04-22T02:36:15.449Z,100788.59
2023-04-22T02:38:42.597Z,100784.22
2023-04-22T02:41:09.724Z,100779.84
2023-04-22T02:43:37.291Z,100781.38
2023-04-22T02:46:04.921Z,100785.09
2023-04-22T02:48:32.174Z,100788.38
2023-04-22T02:50:59.224Z,100780.09
2023-04-22T02:53:26.334Z,100781.88
2023-04-22T02:55:55.720Z,100780.25
2023-04-22T02:58:22.957Z,100776.44
2023-04-22T03:00:50.124Z,100779.06
2023-04-22T03:03:17.531Z,100782.00
2023-04-22T03:05:44.723Z,100778.81
2023-04-22T03:08:11.780Z,100768.94
2023-04-22T03:10:38.960Z,100776.34
2023-04-22T03:13:06.952Z,100778.16
2023-04-22T03:15:34.264Z,100774.22
2023-04-22T03:18:01.410Z,100780.19
2023-04-22T03:20:29.147Z,100779.19
2023-04-22T03:22:56.237Z,100784.03
2023-04-22T03:25:24.842Z,100778.81
2023-04-22T03:27:56.136Z,100779.44
2023-04-22T03:30:23.904Z,100775.50
2023-04-22T03:32:52.541Z,100774.03
2023-04-22T03:35:32.771Z,100766.19
2023-04-22T03:38:01.678Z,100770.63
2023-04-22T03:40:33.098Z,100772.59
2023-04-22T03:43:03.678Z,100773.00
2023-04-22T03:45:30.918Z,100780.09
2023-04-22T03:48:12.505Z,100775.56
2023-04-22T03:50:45.060Z,100773.25
2023-04-22T03:53:12.797Z,100770.50
2023-04-22T03:55:40.143Z,100772.78
2023-04-22T03:58:07.303Z,100768.78
2023-04-22T04:00:34.807Z,100766.25
2023-04-22T04:03:10.124Z,100774.09
2023-04-22T04:05:37.652Z,100775.25
2023-04-22T04:08:04.826Z,100775.38
2023-04-22T04:10:32.795Z,100778.50
2023-04-22T04:13:00.873Z,100782.19
2023-04-22T04:15:32.641Z,100776.16
2023-04-22T04:18:01.413Z,100777.09
2023-04-22T04:20:31.266Z,100767.53
2023-04-22T04:22:59.138Z,100770.38
2023-04-22T04:25:26.939Z,100767.31
2023-04-22T04:27:54.333Z,100771.09
2023-04-22T04:30:21.860Z,100779.63
2023-04-22T04:32:54.136Z,100773.50
2023-04-22T04:35:21.530Z,100773.81
2023-04-22T04:37:53.896Z,100770.56
2023-04-22T04:40:22.004Z,100778.72
2023-04-22T04:43:09.549Z,100777.72
2023-04-22T04:45:48.382Z,100774.94
2023-04-22T04:48:19.826Z,100782.38
2023-04-22T04:50:54.122Z,100784.81
2023-04-22T04:53:22.623Z,100784.16
2023-04-22T04:55:49.848Z,100788.84
2023-04-22T04:58:22.903Z,100786.56
2023-04-22T05:01:03.012Z,100788.19
2023-04-22T05:03:30.734Z,100784.41
2023-04-22T05:05:58.138Z,100783.50
2023-04-22T05:08:26.875Z,100782.59
2023-04-22T05:11:00.816Z,100786.81
2023-04-22T05:13:28.188Z,100785.34
2023-04-22T05:15:56.103Z,100789.94
2023-04-22T05:18:23.864Z,100797.47
2023-04-22T05:20:51.081Z,100799.63
2023-04-22T05:23:20.288Z,100800.44
2023-04-22T05:25:52.792Z,100803.09
2023-04-22T05:28:20.825Z,100798.69
2023-04-22T05:30:52.299Z,100808.53
2023-04-22T05:33:19.397Z,100809.81
2023-04-22T05:35:46.537Z,100814.66
2023-04-22T05:38:13.662Z,100811.84
2023-04-22T05:40:42.383Z,100814.63
2023-04-22T05:43:12.183Z,100811.47
2023-04-22T05:45:43.001Z,100812.13
2023-04-22T05:48:12.551Z,100815.53
2023-04-22T05:50:47.489Z,100819.06
2023-04-22T05:53:14.886Z,100809.47
2023-04-22T05:55:44.072Z,100810.84
2023-04-22T05:58:11.221Z,100814.63
2023-04-22T06:00:49.768Z,100825.00
2023-04-22T06:03:39.872Z,100831.34
2023-04-22T06:06:07.450Z,100824.09
2023-04-22T06:08:34.687Z,100827.38
2023-04-22T06:11:01.738Z,100824.16
2023-04-22T06:13:31.744Z,100831.03
2023-04-22T06:15:58.984Z,100839.81
2023-04-22T06:18:27.443Z,100826.72
2023-04-22T06:20:55.830Z,100827.66
2023-04-22T06:23:23.060Z,100841.00
2023-04-22T06:25:50.245Z,100833.34
2023-04-22T06:28:17.836Z,100836.00
2023-04-22T06:30:46.288Z,100835.63
2023-04-22T06:33:13.598Z,100837.81
2023-04-22T06:35:41.262Z,100838.78
2023-04-22T06:38:08.389Z,100839.38
2023-04-22T06:40:43.806Z,100837.69
2023-04-22T06:43:19.573Z,100838.84
2023-04-22T06:46:09.462Z,100833.31
2023-04-22T06:48:51.660Z,100831.84
2023-04-22T06:51:54.167Z,100826.28
2023-04-22T06:54:21.370Z,100837.25
2023-04-22T06:56:48.783Z,100838.94
2023-04-22T06:59:15.995Z,100837.63
2023-04-22T07:01:43.198Z,100838.63
2023-04-22T07:04:10.316Z,100843.34
2023-04-22T07:06:37.686Z,100841.59
2023-04-22T07:09:05.298Z,100851.69
2023-04-22T07:11:32.960Z,100849.94
2023-04-22T07:14:03.680Z,100844.94
2023-04-22T07:16:30.796Z,100847.53
2023-04-22T07:18:59.176Z,100847.63
2023-04-22T07:21:26.366Z,100847.69
2023-04-22T07:23:53.462Z,100845.78
2023-04-22T07:26:21.142Z,100839.41
2023-04-22T07:28:48.212Z,100833.75
2023-04-22T07:31:15.836Z,100840.66
2023-04-22T07:33:43.181Z,100839.72
2023-04-22T07:36:10.364Z,100842.78
2023-04-22T07:38:37.696Z,100834.22
2023-04-22T07:41:04.784Z,100837.03
2023-04-22T07:43:31.799Z,100833.16
2023-04-22T07:45:58.912Z,100837.19
2023-04-22T07:48:26.055Z,100835.06
2023-04-22T07:50:53.094Z,100833.25
2023-04-22T07:53:20.681Z,100829.38
2023-04-22T07:55:49.718Z,100829.72
2023-04-22T07:58:17.240Z,100837.78
2023-04-22T08:00:44.303Z,100832.63
2023-04-22T08:03:11.618Z,100836.22
2023-04-22T08:05:38.909Z,100828.78
2023-04-22T08:08:06.309Z,100831.50
2023-04-22T08:10:33.404Z,100824.47
2023-04-22T08:13:00.908Z,100818.72
2023-04-22T08:15:28.013Z,100822.22
2023-04-22T08:17:55.184Z,100830.97
2023-04-22T08:20:22.370Z,100826.25
2023-04-22T08:22:51.278Z,100827.88
2023-04-22T08:25:18.414Z,100831.31
2023-04-22T08:27:45.577Z,100821.53
2023-04-22T08:30:12.922Z,100828.19
2023-04-22T08:32:40.112Z,100827.88
2023-04-22T08:35:07.409Z,100827.81
2023-04-22T08:37:34.685Z,100831.41
2023-04-22T08:40:02.143Z,100826.31
2023-04-22T08:42:30.691Z,100829.44
2023-04-22T08:44:58.451Z,100819.88
2023-04-22T08:47:26.482Z,100822.97
2023-04-22T08:49:55.016Z,100825.50
2023-04-22T08:52:22.096Z,100827.84
2023-04-22T08:54:49.272Z,100827.88
2023-04-22T08:57:17.518Z,100826.94
2023-04-22T08:59:45.164Z,100827.81
2023-04-22T09:02:15.950Z,100819.88
2023-04-22T09:04:43.335Z,100826.13
2023-04-22T09:07:10.755Z,100810.25
2023-04-22T09:09:38.608Z,100818.53
2023-04-22T09:12:06.472Z,100811.72
2023-04-22T09:14:33.864Z,100808.44
2023-04-22T09:17:02.830Z,100801.16
2023-04-22T09:19:29.970Z,100793.56
2023-04-22T09:21:59.980Z,100793.72
2023-04-22T09:24:27.171Z,100792.69
2023-04-22T09:26:55.326Z,100793.16
2023-04-22T09:29:22.386Z,100797.53
2023-04-22T09:31:50.462Z,100795.41
2023-04-22T09:34:17.589Z,100794.38
2023-04-22T09:36:46.778Z,100782.84
2023-04-22T09:39:14.548Z,100784.44
2023-04-22T09:41:41.707Z,100779.16
2023-04-22T09:44:16.033Z,100778.56
2023-04-22T09:46:44.069Z,100778.75
2023-04-22T09:49:11.412Z,100768.84
2023-04-22T09:51:40.519Z,100779.09
2023-04-22T09:54:11.641Z,100777.34
2023-04-22T09:56:52.129Z,100774.31
2023-04-22T09:59:20.792Z,100773.69
2023-04-22T10:01:48.531Z,100775.41
2023-04-22T10:04:16.452Z,100771.66
2023-04-22T10:06:43.628Z,100771.88
2023-04-22T10:09:12.335Z,100769.75
2023-04-22T10:11:40.708Z,100774.31
2023-04-22T10:14:10.608Z,100770.56
2023-04-22T10:16:38.645Z,100771.88
2023-04-22T10:19:07.289Z,100773.16
2023-04-22T10:21:34.800Z,100764.31
2023-04-22T10:24:01.855Z,100769.81
2023-04-22T10:26:43.940Z,100763.66
2023-04-22T10:29:17.237Z,100765.00
2023-04-22T10:31:45.542Z,100764.75
2023-04-22T10:34:13.646Z,100763.09
2023-04-22T10:36:57.227Z,100767.84
2023-04-22T10:39:25.462Z,100769.19
2023-04-22T10:41:53.985Z,100753.66
2023-04-22T10:44:22.550Z,100760.72
2023-04-22T10:46:52.971Z,100753.16
2023-04-22T10:49:23.608Z,100755.34
2023-04-22T10:51:51.814Z,100751.66
2023-04-22T10:54:44.619Z,100745.22
2023-04-22T10:57:19.358Z,100748.41
2023-04-22T10:59:53.860Z,100746.34
2023-04-22T11:02:22.083Z,100740.88
2023-04-22T11:04:50.040Z,100747.44
2023-04-22T11:07:26.959Z,100735.72
2023-04-22T11:10:01.692Z,100737.19
2023-04-22T11:12:35.086Z,100733.25
2023-04-22T11:15:05.375Z,100736.91
2023-04-22T11:17:32.718Z,100731.19
2023-04-22T11:20:00.238Z,100737.28
2023-04-22T11:22:27.708Z,100731.34
2023-04-22T11:24:58.340Z,100721.47
2023-04-22T11:27:30.273Z,100726.09
2023-04-22T11:30:09.856Z,100726.00
2023-04-22T11:32:38.017Z,100714.69
2023-04-22T11:35:14.963Z,100715.00
2023-04-22T11:37:42.100Z,100720.94
2023-04-22T11:40:28.254Z,100719.34
2023-04-22T11:42:57.647Z,100719.16
2023-04-22T11:45:24.992Z,100722.28
2023-04-22T11:47:52.554Z,100722.94
2023-04-22T11:50:23.887Z,100709.97
2023-04-22T11:52:57.068Z,100705.72
2023-04-22T11:55:24.817Z,100701.72
2023-04-22T11:57:56.384Z,100702.97
2023-04-22T12:00:24.756Z,100699.03
2023-04-22T12:02:58.969Z,100699.59
2023-04-22T12:05:32.672Z,100698.81
2023-04-22T12:08:00.420Z,100690.31
2023-04-22T12:10:27.554Z,100696.41
2023-04-22T12:12:54.748Z,100701.56
2023-04-22T12:15:21.864Z,100692.75
2023-04-22T12:17:52.705Z,100687.84
2023-04-22T12:20:19.964Z,100681.19
2023-04-22T12:22:47.046Z,100689.50
2023-04-22T12:25:17.616Z,100691.94
2023-04-22T12:27:44.768Z,100685.53
2023-04-22T12:30:12.155Z,100681.16
2023-04-22T12:32:39.401Z,100683.50
2023-04-22T12:35:08.532Z,100680.28
2023-04-22T12:37:35.859Z,100676.13
2023-04-22T12:40:04.003Z,100680.25
2023-04-22T12:42:31.319Z,100682.75
2023-04-22T12:44:58.342Z,100680.25
2023-04-22T12:47:25.462Z,100679.00
2023-04-22T12:49:52.647Z,100685.31
2023-04-22T12:52:19.690Z,100672.00
2023-04-22T12:54:46.813Z,100665.22
2023-04-22T12:57:13.894Z,100668.56
2023-04-22T12:59:41.300Z,100669.09
2023-04-22T13:02:08.712Z,100662.97
2023-04-22T13:04:36.060Z,100676.69
2023-04-22T13:07:03.269Z,100667.16
2023-04-22T13:09:30.497Z,100664.09
2023-04-22T13:11:58.323Z,100657.13
2023-04-22T13:14:25.590Z,100659.78
2023-04-22T13:16:52.694Z,100664.56
2023-04-22T13:19:19.907Z,100653.03
2023-04-22T13:21:46.988Z,100641.69
2023-04-22T13:24:14.053Z,100654.13
2023-04-22T13:26:41.232Z,100651.25
2023-04-22T13:29:11.170Z,100646.38
2023-04-22T13:31:38.723Z,100642.59
2023-04-22T13:34:05.941Z,100634.25
2023-04-22T13:36:33.093Z,100631.69
2023-04-22T13:39:00.562Z,100635.66
2023-04-22T13:41:27.668Z,100634.53
2023-04-22T13:43:56.132Z,100634.63
2023-04-22T13:46:23.433Z,100622.94
2023-04-22T13:48:50.564Z,100623.16
2023-04-22T13:51:17.682Z,100617.66
2023-04-22T13:53:45.152Z,100615.56
2023-04-22T13:56:12.778Z,100622.50
2023-04-22T13:58:40.953Z,100616.88
2023-04-22T14:01:08.172Z,100614.16
2023-04-22T14:03:35.946Z,100616.91
2023-04-22T14:06:03.882Z,100616.94
2023-04-22T14:08:31.001Z,100612.56
2023-04-22T14:10:59.404Z,100605.72
2023-04-22T14:13:27.178Z,100599.16
2023-04-22T14:15:54.297Z,100604.13
2023-04-22T14:18:24.423Z,100602.16
2023-04-22T14:20:52.391Z,100600.22
2023-04-22T14:23:19.775Z,100601.34
2023-04-22T14:25:47.632Z,100602.09
2023-04-22T14:28:15.236Z,100601.91
2023-04-22T14:30:42.813Z,100593.41
2023-04-22T14:33:10.115Z,100592.22
2023-04-22T14:35:37.672Z,100587.72
2023-04-22T14:38:05.946Z,100587.38
2023-04-22T14:40:33.203Z,100591.38
2023-04-22T14:43:01.197Z,100582.16
2023-04-22T14:45:29.123Z,100584.19
2023-04-22T14:47:56.932Z,100586.59
2023-04-22T14:50:24.111Z,100584.91
2023-04-22T14:52:51.410Z,100587.28
2023-04-22T14:55:23.183Z,100590.56
2023-04-22T14:58:06.967Z,100585.13
2023-04-22T15:00:34.159Z,100583.66
2023-04-22T15:03:01.462Z,100576.97
2023-04-22T15:05:28.811Z,100582.53
2023-04-22T15:07:57.713Z,100590.03
2023-04-22T15:10:24.900Z,100581.41
2023-04-22T15:12:51.940Z,100576.41
2023-04-22T15:15:19.463Z,100584.59
2023-04-22T15:17:46.723Z,100577.84
2023-04-22T15:20:13.813Z,100579.03
2023-04-22T15:22:41.341Z,100572.63
2023-04-22T15:25:09.186Z,100569.69
2023-04-22T15:27:37.082Z,100582.06
2023-04-22T15:30:06.024Z,100582.06
2023-04-22T15:32:33.176Z,100580.47
2023-04-22T15:35:00.890Z,100582.09
2023-04-22T15:37:28.057Z,100575.00
2023-04-22T15:39:55.251Z,100574.22
2023-04-22T15:42:22.344Z,100576.63
2023-04-22T15:44:49.456Z,100580.53
2023-04-22T15:47:17.516Z,100579.13
2023-04-22T15:49:44.688Z,100570.00
2023-04-22T15:52:11.775Z,100572.34
2023-04-22T15:54:38.945Z,100574.03
2023-04-22T15:57:06.090Z,100580.03
2023-04-22T15:59:33.136Z,100573.72
2023-04-22T16:02:00.517Z,100572.09
2023-04-22T16:04:28.204Z,100571.75
2023-04-22T16:06:57.399Z,100576.50
2023-04-22T16:09:24.528Z,100566.19
2023-04-22T16:11:52.451Z,100573.31
2023-04-22T16:14:19.581Z,100566.63
2023-04-22T16:16:46.977Z,100573.72
2023-04-22T16:19:14.394Z,100570.22
2023-04-22T16:21:41.498Z,100567.03
2023-04-22T16:24:08.762Z,100571.84
2023-04-22T16:26:35.797Z,100569.88
2023-04-22T16:29:02.971Z,100570.28
2023-04-22T16:31:30.053Z,100569.09
2023-04-22T16:33:58.486Z,100558.84
2023-04-22T16:36:25.592Z,100563.19
2023-04-22T16:38:52.775Z,100566.81
2023-04-22T16:41:20.638Z,100574.69
2023-04-22T16:43:47.792Z,100573.50
2023-04-22T16:46:14.917Z,100566.00
2023-04-22T16:48:42.084Z,100570.75
2023-04-22T16:51:09.213Z,100571.91
2023-04-22T16:53:36.362Z,100574.69
2023-04-22T16:56:03.465Z,100561.63
2023-04-22T16:58:30.595Z,100562.84
2023-04-22T17:00:58.008Z,100568.38
2023-04-22T17:03:25.505Z,100555.72
2023-04-22T17:05:53.196Z,100562.03
2023-04-22T17:08:20.327Z,100564.41
2023-04-22T17:10:48.200Z,100569.97
2023-04-22T17:13:15.442Z,100563.66
2023-04-22T17:15:42.549Z,100568.38
2023-04-22T17:18:09.699Z,100571.13
2023-04-22T17:20:37.269Z,100567.19
2023-04-22T17:23:04.474Z,100571.16
2023-04-22T17:25:31.768Z,100570.34
2023-04-22T17:27:58.886Z,100569.97
2023-04-22T17:30:26.007Z,100576.28
2023-04-22T17:32:53.179Z,100582.19
2023-04-22T17:35:20.356Z,100572.69
2023-04-22T17:37:47.461Z,100575.81
2023-04-22T17:40:14.568Z,100573.44
2023-04-22T17:45:11.929Z,100584.03
2023-04-22T17:47:39.084Z,100593.50
2023-04-22T17:50:06.756Z,100591.09
2023-04-22T17:52:34.045Z,100591.47
2023-04-22T17:55:01.079Z,100597.31
2023-04-22T17:57:28.431Z,100603.63
2023-04-22T17:59:55.668Z,100596.91
2023-04-22T18:02:23.508Z,100599.25
2023-04-22T18:04:50.919Z,100610.63
2023-04-22T18:07:18.089Z,100603.13
2023-04-22T18:09:45.600Z,100614.16
2023-04-22T18:12:12.742Z,100604.59
2023-04-22T18:14:39.872Z,100607.31
2023-04-22T18:17:07.075Z,100606.94
2023-04-22T18:19:34.220Z,100603.75
2023-04-22T18:22:01.372Z,100613.13
2023-04-22T18:24:28.636Z,100619.75
2023-04-22T18:26:55.755Z,100620.13
2023-04-22T18:29:22.838Z,100623.66
2023-04-22T18:31:49.929Z,100622.03
2023-04-22T18:34:17.038Z,100622.41
2023-04-22T18:36:44.170Z,100629.44
2023-04-22T18:39:11.459Z,100629.09
2023-04-22T18:41:39.981Z,100632.19
2023-04-22T18:44:07.092Z,100639.25
2023-04-22T18:46:34.119Z,100640.00
2023-04-22T18:49:01.323Z,100633.69
2023-04-22T18:51:29.824Z,100642.31
2023-04-22T18:53:57.017Z,100641.88
2023-04-22T18:56:24.047Z,100647.72
2023-04-22T18:58:51.444Z,100646.19
2023-04-22T19:01:18.552Z,100654.84
2023-04-22T19:03:46.460Z,100658.00
2023-04-22T19:06:13.606Z,100655.66
2023-04-22T19:08:40.840Z,100659.16
2023-04-22T19:11:07.987Z,100668.16
2023-04-22T19:13:35.192Z,100666.91
2023-04-22T19:16:02.293Z,100668.06
2023-04-22T19:18:29.559Z,100671.16
2023-04-22T19:20:56.612Z,100668.75
2023-04-22T19:23:23.910Z,100675.44
2023-04-22T19:25:51.675Z,100674.25
2023-04-22T19:28:18.957Z,100681.31
2023-04-22T19:30:46.190Z,100680.06
2023-04-22T19:33:13.262Z,100681.97
2023-04-22T19:35:40.433Z,100679.72
2023-04-22T19:38:07.660Z,100678.97
2023-04-22T19:40:34.851Z,100677.91
2023-04-22T19:43:02.032Z,100679.19
2023-04-22T19:45:29.935Z,100678.38
2023-04-22T19:47:57.212Z,100674.38
2023-04-22T19:50:24.441Z,100681.41
2023-04-22T19:52:57.711Z,100670.00
2023-04-22T19:55:24.832Z,100661.72
2023-04-22T19:57:52.120Z,100666.41
2023-04-22T20:00:19.413Z,100671.16
2023-04-22T20:02:46.783Z,100665.66
2023-04-22T20:05:14.270Z,100671.44
2023-04-22T20:07:43.076Z,100669.41
2023-04-22T20:10:10.376Z,100675.22
2023-04-22T20:12:37.556Z,100675.25
2023-04-22T20:15:05.729Z,100676.34
2023-04-22T20:17:35.912Z,100671.59
2023-04-22T20:20:06.814Z,100670.75
2023-04-22T20:22:34.894Z,100668.78
2023-04-22T20:25:03.745Z,100668.38
2023-04-22T20:27:32.381Z,100669.84
2023-04-22T20:30:00.337Z,100664.72
2023-04-22T20:32:28.070Z,100660.78
2023-04-22T20:34:55.844Z,100660.25
2023-04-22T20:37:23.484Z,100659.66
2023-04-22T20:39:50.970Z,100663.78
2023-04-22T20:42:18.764Z,100676.16
2023-04-22T20:44:46.267Z,100670.81
2023-04-22T20:47:13.833Z,100669.19
2023-04-22T20:49:42.070Z,100674.66
2023-04-22T20:52:09.739Z,100674.63
2023-04-22T20:54:37.521Z,100681.31
2023-04-22T20:57:05.973Z,100684.06
2023-04-22T20:59:33.544Z,100681.16
2023-04-22T21:02:00.920Z,100678.72
2023-04-22T21:04:28.254Z,100685.75
2023-04-22T21:06:56.088Z,100686.09
2023-04-22T21:09:26.044Z,100682.19
2023-04-22T21:11:53.397Z,100683.97
2023-04-22T21:14:22.364Z,100689.91
2023-04-22T21:17:10.308Z,100691.63
2023-04-22T21:19:38.041Z,100695.66
2023-04-22T21:22:06.187Z,100702.19
2023-04-22T21:24:35.085Z,100703.63
2023-04-22T21:27:02.947Z,100701.13
2023-04-22T21:29:30.292Z,100695.19
2023-04-22T21:32:08.252Z,100697.72
2023-04-22T21:34:36.932Z,100696.44
2023-04-22T21:37:04.947Z,100696.81
2023-04-22T21:39:32.063Z,100696.06
2023-04-22T21:41:59.105Z,100690.47
2023-04-22T21:44:26.181Z,100694.41
2023-04-22T21:46:53.247Z,100691.66
2023-04-22T21:49:20.586Z,100700.34
2023-04-22T21:51:47.842Z,100700.28
2023-04-22T21:54:14.913Z,100700.84
2023-04-22T21:56:42.052Z,100702.34
2023-04-22T21:59:09.168Z,100694.66
2023-04-22T22:01:36.262Z,100701.19
2023-04-22T22:04:03.636Z,100696.41
2023-04-22T22:06:30.860Z,100698.66
2023-04-22T22:08:57.919Z,100692.59
2023-04-22T22:11:31.019Z,100687.19
2023-04-22T22:13:58.844Z,100691.28
2023-04-22T22:16:26.150Z,100698.75
2023-04-22T22:18:53.424Z,100693.53
2023-04-22T22:21:20.460Z,100690.81
2023-04-22T22:23:47.511Z,100689.94
2023-04-22T22:26:14.587Z,100693.31
2023-04-22T22:28:41.753Z,100698.28
2023-04-22T22:31:09.009Z,100690.84
2023-04-22T22:33:36.045Z,100690.28
2023-04-22T22:36:03.160Z,100691.50
2023-04-22T22:38:30.249Z,100680.97
2023-04-22T22:40:57.336Z,100678.78
2023-04-22T22:43:24.479Z,100676.56
2023-04-22T22:45:51.577Z,100674.31
2023-04-22T22:48:18.925Z,100681.75
2023-04-22T22:50:49.120Z,100674.75
2023-04-22T22:53:16.179Z,100675.09
2023-04-22T22:55:43.259Z,100676.19
2023-04-22T22:58:10.330Z,100677.97
2023-04-22T23:00:37.442Z,100684.41
2023-04-22T23:03:04.741Z,100672.22
2023-04-22T23:05:31.963Z,100680.09
2023-04-22T23:07:59.051Z,100675.00
2023-04-22T23:10:26.184Z,100678.31
2023-04-22T23:12:53.292Z,100677.72
2023-04-22T23:15:20.385Z,100678.66
2023-04-22T23:17:49.708Z,100668.09
2023-04-22T23:20:17.338Z,100664.38
2023-04-22T23:22:45.003Z,100667.63
2023-04-22T23:25:12.447Z,100658.03
2023-04-22T23:27:40.580Z,100659.19
2023-04-22T23:30:07.979Z,100658.22
2023-04-22T23:32:35.695Z,100658.03
2023-04-22T23:35:03.716Z,100659.47
2023-04-22T23:37:31.404Z,100654.00
2023-04-22T23:39:58.563Z,100651.31
2023-04-22T23:42:25.934Z,100635.97
2023-04-22T23:44:52.947Z,100635.13
2023-04-22T23:47:20.109Z,100636.22
2023-04-22T23:49:47.614Z,100630.78
2023-04-22T23:52:14.649Z,100639.75
2023-04-22T23:54:42.106Z,100631.16
2023-04-22T23:57:09.544Z,100637.50
2023-04-22T23:59:36.743Z,100637.22
